Terminal Aerodrome Forecast
Issued by NWS

Home | Current Version | Previous Version | Text Only | Print | Product List | Glossary On
Versions: 1 2 3 4 5 6 7 8 9 10 11 12 13 14 15 16 17
000
FTUS44 KEPZ 031700
TAFTCS
TAF
KTCS 031720Z 0318/0418 17007KT P6SM SCT060 BKN150
     FM032100 22016G25KT P6SM SCT070 BKN180
     FM040000 24012KT P6SM SCT060 SCT150
     FM041000 VRB06KT P6SM VCSH BKN050 BKN090=

USA.gov is the U.S. government's official web portal to all federal, state and local government web resources and services.